Time;durP1;ratioP1;P1;durP2;ratioP2;P2;SDS_P1;SDS_P2;PMS_P1;PMS_P2;Temp;Humidity;BMP_temperature;BMP_pressure;BME280_temperature;BME280_humidity;BME280_pressure;Samples;Min_cycle;Max_cycle;Signal;HPM_P1;HPM_P2
2021/12/04 00:02:00;;;;;;;2.85;1.80;;;;;;;14.31;35.25;93873.72;5055497;28;20056;-52
2021/12/04 00:04:31;;;;;;;2.55;2.00;;;;;;;14.08;36.02;93866.19;5054145;28;20044;-55
2021/12/04 00:06:58;;;;;;;2.20;1.90;;;;;;;13.97;36.09;93875.50;5055387;28;20459;-46
2021/12/04 00:09:26;;;;;;;1.98;1.70;;;;;;;14.20;35.72;93863.63;5053945;28;20363;-51
2021/12/04 00:12:01;;;;;;;2.20;1.60;;;;;;;14.59;35.22;93874.81;5054726;28;20049;-53
2021/12/04 00:14:29;;;;;;;2.30;1.80;;;;;;;13.92;35.95;93865.19;5054200;28;20358;-47
2021/12/04 00:16:57;;;;;;;2.08;1.75;;;;;;;13.91;35.97;93861.03;5054672;28;20045;-46
2021/12/04 00:19:25;;;;;;;3.47;2.38;;;;;;;13.72;36.62;93869.31;5054109;28;20060;-53
2021/12/04 00:21:52;;;;;;;3.05;2.20;;;;;;;14.09;35.50;93872.97;5054555;28;20052;-47
2021/12/04 00:24:20;;;;;;;2.90;2.10;;;;;;;13.93;36.02;93871.97;5053992;28;20056;-58
2021/12/04 00:26:48;;;;;;;2.63;2.00;;;;;;;14.14;36.01;93875.41;5054480;28;20355;-56
2021/12/04 00:29:16;;;;;;;3.22;2.00;;;;;;;14.14;35.84;93870.16;5054265;28;20383;-57
2021/12/04 00:31:48;;;;;;;2.45;2.08;;;;;;;14.35;35.79;93848.38;5054492;28;20060;-53
2021/12/04 00:34:16;;;;;;;2.90;2.35;;;;;;;15.22;33.92;93866.75;5042732;28;20083;-57
2021/12/04 00:50:16;;;;;;;1.50;1.30;;;;;;;13.46;36.26;93869.44;5044909;28;20053;-50
2021/12/04 00:52:43;;;;;;;2.30;1.75;;;;;;;13.75;36.09;93873.16;5034247;28;20084;-47
2021/12/04 00:55:10;;;;;;;1.60;1.30;;;;;;;13.82;35.67;93868.19;5042718;28;20052;-54
2021/12/04 00:57:38;;;;;;;2.55;1.50;;;;;;;14.11;35.24;93875.28;5053846;28;20052;-50
2021/12/04 01:00:07;;;;;;;1.77;1.40;;;;;;;14.67;34.14;93866.06;5057790;28;20048;-46
2021/12/04 01:02:34;;;;;;;2.08;1.50;;;;;;;15.08;33.34;93864.41;5048970;28;20057;-48
2021/12/04 01:05:01;;;;;;;3.08;1.80;;;;;;;14.01;35.04;93860.63;5045032;28;20360;-59
2021/12/04 01:07:28;;;;;;;2.50;1.90;;;;;;;14.36;34.88;93850.66;5057683;28;20049;-47
2021/12/04 01:09:55;;;;;;;2.80;2.22;;;;;;;14.04;35.30;93852.13;5057546;28;20049;-53
2021/12/04 01:12:23;;;;;;;2.70;2.28;;;;;;;13.72;35.63;93842.28;5054740;28;20060;-56
2021/12/04 01:14:50;;;;;;;2.95;2.13;;;;;;;13.80;35.21;93833.59;5043176;28;20044;-51
2021/12/04 01:17:17;;;;;;;2.05;1.75;;;;;;;14.18;34.39;93829.00;5057981;28;20052;-48
2021/12/04 01:19:44;;;;;;;2.17;1.90;;;;;;;13.98;34.56;93818.47;5057581;28;20041;-48
2021/12/04 01:22:11;;;;;;;2.53;2.08;;;;;;;13.51;35.53;93826.47;5057784;28;20451;-50
2021/12/04 01:24:38;;;;;;;2.35;2.00;;;;;;;14.02;35.03;93820.13;5057729;28;20051;-52
2021/12/04 01:27:08;;;;;;;2.40;2.10;;;;;;;13.96;34.51;93818.78;5058164;28;20115;-45
2021/12/04 01:29:35;;;;;;;2.20;1.90;;;;;;;13.33;35.87;93819.78;5057881;28;20444;-46
2021/12/04 01:32:02;;;;;;;2.28;2.00;;;;;;;13.63;35.44;93807.41;5043664;28;20056;-49
2021/12/04 01:34:29;;;;;;;2.80;2.50;;;;;;;13.89;34.65;93821.16;5038998;28;20363;-59
2021/12/04 01:36:56;;;;;;;2.58;2.35;;;;;;;13.14;35.79;93818.28;5057391;28;20067;-51
2021/12/04 01:39:23;;;;;;;2.63;2.42;;;;;;;13.48;35.40;93800.84;5056681;28;20053;-57
2021/12/04 01:41:50;;;;;;;3.60;3.00;;;;;;;13.26;35.98;93804.50;5057442;28;20048;-47
2021/12/04 01:44:17;;;;;;;3.63;3.08;;;;;;;13.25;35.84;93818.72;5057167;28;20060;-58
2021/12/04 01:46:44;;;;;;;3.30;3.00;;;;;;;13.08;36.48;93827.41;5057343;28;20040;-60
2021/12/04 01:49:11;;;;;;;3.03;2.67;;;;;;;13.60;35.43;93818.56;5057015;28;20049;-61
2021/12/04 01:51:39;;;;;;;3.00;2.53;;;;;;;13.40;35.72;93820.81;5057257;28;20057;-54
2021/12/04 01:54:06;;;;;;;2.60;2.40;;;;;;;13.31;35.79;93822.72;5039500;23;20045;-58
2021/12/04 01:56:34;;;;;;;4.72;2.97;;;;;;;13.45;35.56;93828.50;5013345;28;20046;-57
2021/12/04 01:59:02;;;;;;;3.03;2.58;;;;;;;13.20;36.04;93826.75;5016207;28;20050;-59
2021/12/04 02:01:32;;;;;;;3.03;2.75;;;;;;;12.98;36.21;93831.13;5016371;28;20046;-53
2021/12/04 02:03:59;;;;;;;3.33;2.40;;;;;;;13.01;36.39;93816.63;5017186;28;20057;-54
2021/12/04 02:06:26;;;;;;;3.10;2.80;;;;;;;12.94;36.64;93829.44;5016036;28;20042;-47
2021/12/04 02:08:53;;;;;;;3.42;2.88;;;;;;;13.10;36.23;93827.84;5017064;28;20104;-50
2021/12/04 02:11:20;;;;;;;2.92;2.63;;;;;;;13.37;35.73;93826.69;5016484;28;20054;-58
2021/12/04 02:13:47;;;;;;;2.70;2.50;;;;;;;13.39;36.06;93835.03;5016899;28;20045;-50
2021/12/04 02:16:19;;;;;;;3.40;2.90;;;;;;;13.26;36.40;93830.75;5016645;28;20046;-55
2021/12/04 02:18:46;;;;;;;3.10;2.58;;;;;;;13.84;35.11;93823.97;5016855;28;20129;-55
2021/12/04 02:21:14;;;;;;;3.25;2.90;;;;;;;13.89;34.77;93832.44;5008133;28;20057;-61
2021/12/04 02:23:41;;;;;;;3.80;2.70;;;;;;;13.42;35.85;93813.38;5015310;28;20073;-52
2021/12/04 02:26:08;;;;;;;3.80;3.17;;;;;;;13.55;35.98;93812.41;5016564;28;20471;-55
2021/12/04 02:28:35;;;;;;;3.35;2.83;;;;;;;14.22;35.05;93813.34;5016881;28;20045;-45
2021/12/04 02:31:03;;;;;;;2.90;2.60;;;;;;;13.96;34.92;93818.78;5016546;28;20046;-55
2021/12/04 02:33:30;;;;;;;3.35;2.70;;;;;;;13.60;35.79;93818.56;5016308;28;20050;-46
2021/12/04 02:35:58;;;;;;;3.60;3.13;;;;;;;14.04;35.06;93804.03;5016473;28;20060;-54
2021/12/04 02:38:26;;;;;;;3.10;2.80;;;;;;;13.26;36.61;93812.38;5016651;28;20058;-52
2021/12/04 02:40:55;;;;;;;3.88;3.03;;;;;;;13.94;35.09;93802.56;5016430;28;20436;-49
2021/12/04 02:43:23;;;;;;;4.13;3.10;;;;;;;13.84;35.66;93802.97;5015972;28;20449;-55
2021/12/04 02:45:50;;;;;;;3.38;3.08;;;;;;;13.57;35.93;93819.97;5016235;28;20060;-49
2021/12/04 02:48:18;;;;;;;3.60;2.88;;;;;;;13.63;36.41;93823.94;5016532;28;20050;-61
2021/12/04 02:50:46;;;;;;;3.88;3.47;;;;;;;13.75;36.16;93821.38;5016264;28;20053;-53
2021/12/04 02:53:14;;;;;;;3.35;2.80;;;;;;;13.58;36.54;93811.78;5015013;28;20054;-53
2021/12/04 02:55:42;;;;;;;3.40;2.90;;;;;;;13.69;36.65;93811.38;5016384;28;20463;-49
2021/12/04 02:58:09;;;;;;;4.15;3.35;;;;;;;14.11;35.95;93802.47;5016738;28;20422;-56
2021/12/04 03:00:48;;;;;;;3.13;2.83;;;;;;;14.00;36.24;93811.78;5016310;28;20050;-52
2021/12/04 03:03:17;;;;;;;3.15;2.78;;;;;;;13.92;36.20;93798.72;5015113;28;20057;-48
2021/12/04 03:05:48;;;;;;;3.60;3.15;;;;;;;13.93;36.35;93801.03;5016198;28;20486;-46
2021/12/04 03:08:16;;;;;;;3.95;3.00;;;;;;;13.93;36.19;93806.28;5016217;28;20061;-50
2021/12/04 03:10:43;;;;;;;3.40;3.10;;;;;;;13.72;36.98;93802.88;5015924;28;20049;-52
2021/12/04 03:13:10;;;;;;;3.97;3.58;;;;;;;13.03;38.18;93805.81;5015239;28;20475;-55
2021/12/04 03:15:38;;;;;;;7.18;4.50;;;;;;;13.25;38.04;93814.22;5006299;28;20046;-55
2021/12/04 03:18:06;;;;;;;6.07;4.60;;;;;;;13.65;36.99;93821.75;4996453;28;20046;-48
2021/12/04 03:20:40;;;;;;;7.88;5.20;;;;;;;13.56;36.85;93806.06;4996065;28;20469;-55
2021/12/04 03:23:14;;;;;;;5.68;4.60;;;;;;;13.54;37.05;93800.38;5006812;28;20053;-58
2021/12/04 03:25:43;;;;;;;5.15;4.53;;;;;;;13.51;37.14;93794.94;5015844;28;20048;-48
2021/12/04 03:28:12;;;;;;;4.78;3.83;;;;;;;12.82;38.37;93806.50;5015827;28;20062;-52
2021/12/04 03:30:48;;;;;;;3.83;3.40;;;;;;;13.45;37.01;93818.00;5015573;28;20105;-55
2021/12/04 03:41:17;;;;;;;4.25;3.72;;;;;;;13.51;36.42;93811.47;5015647;28;20049;-55
2021/12/04 03:43:44;;;;;;;4.90;3.90;;;;;;;13.31;36.52;93822.72;5014878;28;20079;-47
2021/12/04 03:46:15;;;;;;;4.40;3.80;;;;;;;13.33;36.68;93825.78;5015718;28;20071;-52
2021/12/04 03:51:10;;;;;;;4.32;3.90;;;;;;;13.02;37.37;93820.78;5047602;28;20049;-51
2021/12/04 03:53:37;;;;;;;4.10;3.70;;;;;;;13.40;36.09;93810.31;5014128;28;20050;-56
2021/12/04 03:56:05;;;;;;;4.13;3.72;;;;;;;13.83;35.40;93817.19;5015440;28;20042;-55
2021/12/04 03:58:32;;;;;;;6.28;4.80;;;;;;;13.18;36.98;93831.56;5015483;28;20053;-55
2021/12/04 04:00:59;;;;;;;5.45;4.53;;;;;;;12.86;36.86;93825.75;5015136;28;20062;-46
2021/12/04 04:03:27;;;;;;;4.70;4.20;;;;;;;12.88;37.15;93834.09;5014323;28;20042;-47
2021/12/04 04:05:55;;;;;;;5.47;4.60;;;;;;;13.62;36.21;93819.00;5015216;28;20046;-55
2021/12/04 04:08:22;;;;;;;7.00;5.03;;;;;;;13.31;36.37;93841.09;5014786;28;20061;-50
2021/12/04 04:10:52;;;;;;;4.90;4.40;;;;;;;12.87;37.27;93840.41;5014932;28;20050;-59
2021/12/04 04:13:19;;;;;;;402.35;300.42;;;;;;;13.51;36.87;93835.13;5013776;28;20046;-57
2021/12/04 04:15:47;;;;;;;10.43;8.07;;;;;;;13.26;36.45;93830.75;5014775;28;20053;-52
2021/12/04 04:18:14;;;;;;;5.60;5.05;;;;;;;13.38;36.23;93833.50;5014979;28;20072;-59
2021/12/04 04:20:41;;;;;;;6.13;4.88;;;;;;;13.78;35.55;93836.50;5014694;28;20057;-59
2021/12/04 04:23:08;;;;;;;5.57;4.30;;;;;;;13.88;34.78;93835.38;5004286;28;20496;-44
2021/12/04 04:25:36;;;;;;;4.72;4.28;;;;;;;13.11;35.90;93834.66;5014149;28;20053;-47
2021/12/04 04:28:03;;;;;;;5.25;4.70;;;;;;;13.27;35.99;93838.34;5046487;28;20046;-59
2021/12/04 04:30:30;;;;;;;4.75;4.35;;;;;;;13.37;35.59;93847.69;5014904;28;20453;-57
2021/12/04 04:32:57;;;;;;;5.55;4.90;;;;;;;12.77;36.49;93845.25;5001253;28;20679;-52
2021/12/04 04:35:26;;;;;;;4.95;4.43;;;;;;;12.80;36.76;93836.75;5011169;28;20342;-60
2021/12/04 04:59:30;;;;;;;5.15;4.65;;;;;;;13.87;34.26;93862.75;5041484;28;20049;-54
2021/12/04 05:12:51;;;;;;;4.60;4.05;;;;;;;13.28;35.52;93865.34;5013993;28;20046;-58
2021/12/04 05:20:48;;;;;;;5.07;4.47;;;;;;;15.00;32.24;93862.66;5002715;28;20052;-45
2021/12/04 05:23:15;;;;;;;5.00;4.50;;;;;;;14.44;33.38;93856.97;5013104;28;20057;-52
2021/12/04 05:25:43;;;;;;;5.15;4.65;;;;;;;14.07;34.48;93859.38;5013735;28;20053;-57
2021/12/04 05:28:10;;;;;;;4.90;4.40;;;;;;;13.53;35.28;93858.44;5014200;28;20049;-50
2021/12/04 05:30:37;;;;;;;5.10;4.60;;;;;;;13.41;35.33;93864.34;5011020;28;20079;-55
2021/12/04 05:33:05;;;;;;;5.28;4.63;;;;;;;13.82;34.82;93868.19;5013880;28;20052;-62
2021/12/04 05:35:32;;;;;;;5.53;4.97;;;;;;;13.09;35.92;93865.69;5013617;28;20045;-57
2021/12/04 05:38:00;;;;;;;5.30;4.80;;;;;;;13.33;35.67;93851.28;5014221;28;20050;-54
2021/12/04 05:40:27;;;;;;;5.55;5.05;;;;;;;14.10;34.86;93856.13;5014084;28;20054;-53
2021/12/04 05:43:00;;;;;;;5.53;5.03;;;;;;;13.82;35.19;93862.94;5013871;28;20053;-57
2021/12/04 05:45:30;;;;;;;7.00;5.80;;;;;;;13.79;35.27;93853.03;5015260;28;20368;-57
2021/12/04 05:55:42;;;;;;;5.85;5.30;;;;;;;13.75;35.15;93857.41;5015711;28;20528;-59
2021/12/04 05:58:10;;;;;;;7.50;5.55;;;;;;;13.84;35.01;93866.03;5017492;28;20088;-51
2021/12/04 06:00:37;;;;;;;6.85;6.10;;;;;;;13.55;35.56;93870.19;5016908;28;20771;-54
2021/12/04 06:03:04;;;;;;;6.47;5.68;;;;;;;13.26;36.08;93870.13;5016046;28;20049;-50
2021/12/04 06:05:31;;;;;;;5.88;5.25;;;;;;;13.87;35.45;93871.41;5017026;28;20084;-51
2021/12/04 06:07:59;;;;;;;5.68;5.18;;;;;;;14.38;34.24;93874.00;5002829;28;20062;-48
2021/12/04 06:10:26;;;;;;;6.53;5.82;;;;;;;13.65;35.20;93887.44;4997627;28;20042;-56
2021/12/04 06:12:53;;;;;;;6.60;5.90;;;;;;;13.24;35.71;93874.91;4998269;28;20054;-62
2021/12/04 06:15:20;;;;;;;8.05;6.32;;;;;;;13.32;35.46;93882.00;5043607;28;20088;-54
2021/12/04 06:17:50;;;;;;;6.97;6.28;;;;;;;13.58;34.78;93880.06;5017083;28;20060;-54
2021/12/04 06:23:03;;;;;;;7.72;6.93;;;;;;;13.26;35.96;93875.38;5015665;28;20057;-56
2021/12/04 06:25:30;;;;;;;7.05;6.20;;;;;;;13.26;35.41;93878.00;5015885;28;20064;-54
2021/12/04 06:27:57;;;;;;;7.97;6.90;;;;;;;13.16;35.90;93873.06;5016550;28;20046;-59
2021/12/04 06:30:25;;;;;;;7.97;6.70;;;;;;;13.26;35.62;93867.50;5016336;28;20511;-60
2021/12/04 06:32:54;;;;;;;7.70;6.55;;;;;;;13.57;34.55;93877.75;5017531;28;20045;-53
2021/12/04 06:35:22;;;;;;;7.15;6.25;;;;;;;13.75;34.14;93868.66;5016432;28;20049;-60
2021/12/04 06:37:50;;;;;;;7.47;6.68;;;;;;;13.63;34.26;93886.97;5016182;28;20060;-63
2021/12/04 06:40:19;;;;;;;7.32;6.63;;;;;;;13.49;35.11;93891.66;5016725;28;20056;-60
2021/12/04 06:42:46;;;;;;;7.50;6.70;;;;;;;13.48;35.10;93885.63;5016335;28;20441;-58
2021/12/04 06:45:13;;;;;;;7.30;6.60;;;;;;;13.89;34.30;93890.25;5015959;28;20353;-58
2021/12/04 06:47:47;;;;;;;6.63;5.93;;;;;;;13.81;34.43;93885.06;5005603;28;20058;-58
2021/12/04 06:50:30;;;;;;;8.52;6.50;;;;;;;13.87;34.71;93896.91;5001960;28;20064;-59
2021/12/04 06:53:01;;;;;;;7.35;6.50;;;;;;;14.01;34.51;93910.56;5015084;28;20483;-56
2021/12/04 06:55:31;;;;;;;7.57;6.55;;;;;;;13.78;34.74;93904.03;5015167;28;20045;-60
2021/12/04 06:57:58;;;;;;;7.47;6.68;;;;;;;13.47;34.96;93915.59;5016257;28;20053;-57
2021/12/04 07:00:26;;;;;;;8.13;7.25;;;;;;;13.65;34.78;93910.31;5016255;28;20058;-57
2021/12/04 07:02:53;;;;;;;9.00;8.07;;;;;;;13.58;35.30;93906.31;5015651;28;20045;-56
2021/12/04 07:05:20;;;;;;;11.05;8.30;;;;;;;13.14;35.86;93923.25;5008058;28;20555;-57
2021/12/04 07:07:47;;;;;;;9.45;7.75;;;;;;;13.96;34.67;93908.13;4996788;28;20065;-52
2021/12/04 07:10:14;;;;;;;9.10;8.20;;;;;;;13.61;34.65;93917.28;4996920;28;20046;-58
2021/12/04 07:12:41;;;;;;;8.88;7.97;;;;;;;13.85;34.28;93920.88;5009748;28;20463;-56
2021/12/04 07:15:10;;;;;;;8.52;7.53;;;;;;;13.61;34.54;93919.91;5004338;28;20368;-52
2021/12/04 07:17:37;;;;;;;8.80;7.80;;;;;;;13.70;34.40;93920.63;5016402;28;20046;-60
2021/12/04 07:20:07;;;;;;;9.88;8.45;;;;;;;13.66;35.12;93917.09;5016054;28;20050;-61
2021/12/04 07:22:34;;;;;;;8.75;7.85;;;;;;;13.52;34.48;93920.69;5015012;28;20045;-58
2021/12/04 07:25:03;;;;;;;9.60;7.63;;;;;;;13.39;34.99;93919.03;5015645;28;20338;-62
2021/12/04 07:27:30;;;;;;;9.13;8.20;;;;;;;13.07;36.30;93916.94;5015871;28;20236;-61
2021/12/04 07:29:59;;;;;;;8.55;7.65;;;;;;;13.53;34.91;93916.19;5015957;28;20053;-56
2021/12/04 07:32:26;;;;;;;8.50;7.60;;;;;;;13.73;34.48;93906.84;5015330;28;20076;-58
2021/12/04 07:34:53;;;;;;;9.40;7.53;;;;;;;13.83;34.47;93902.03;5015260;28;20046;-64
2021/12/04 07:37:22;;;;;;;8.50;7.53;;;;;;;13.99;34.02;93910.13;5015673;28;20056;-63
2021/12/04 07:39:49;;;;;;;10.05;8.23;;;;;;;14.16;34.22;93899.53;5015651;28;20049;-65
2021/12/04 07:42:17;;;;;;;10.20;9.10;;;;;;;13.69;34.90;93890.97;5015081;28;20041;-59
2021/12/04 07:44:44;;;;;;;9.45;8.25;;;;;;;13.83;34.98;93885.50;5015269;28;20041;-59
2021/12/04 07:47:11;;;;;;;9.50;8.32;;;;;;;14.66;32.69;93880.31;5010967;28;20396;-57
2021/12/04 07:49:38;;;;;;;8.38;7.57;;;;;;;14.17;34.10;93868.75;4995814;28;20058;-60
2021/12/04 07:52:09;;;;;;;9.68;8.68;;;;;;;13.76;35.05;93874.69;5002516;28;20046;-60
2021/12/04 07:54:37;;;;;;;9.00;8.10;;;;;;;14.08;35.41;93849.66;5012007;28;20369;-58
2021/12/04 07:57:04;;;;;;;8.48;7.57;;;;;;;14.27;34.42;93843.91;5015187;28;20388;-63
2021/12/04 07:59:32;;;;;;;8.20;7.45;;;;;;;14.18;33.87;93850.03;5000437;28;20050;-64
2021/12/04 08:01:59;;;;;;;8.77;7.50;;;;;;;14.32;34.08;93851.63;5001054;28;20056;-63
2021/12/04 08:04:27;;;;;;;8.75;7.85;;;;;;;14.55;33.74;93842.31;5014268;28;20053;-61
2021/12/04 08:06:54;;;;;;;9.75;8.43;;;;;;;14.31;34.27;93844.81;5014615;28;20049;-66
2021/12/04 08:09:22;;;;;;;8.57;7.75;;;;;;;13.96;34.73;93842.44;5014779;28;20441;-63
2021/12/04 08:11:50;;;;;;;7.68;6.88;;;;;;;14.34;33.67;93842.34;5014903;28;20045;-60
2021/12/04 08:14:18;;;;;;;8.88;7.97;;;;;;;14.50;34.09;93834.63;5014638;28;20050;-65
2021/12/04 08:16:47;;;;;;;8.23;7.43;;;;;;;14.77;33.61;93841.97;5014608;28;20050;-63
2021/12/04 08:19:14;;;;;;;8.95;8.05;;;;;;;14.61;33.64;93846.31;5014944;28;20042;-65
2021/12/04 08:21:41;;;;;;;9.70;8.70;;;;;;;14.51;33.56;93857.22;5014574;28;20057;-61
2021/12/04 08:24:09;;;;;;;9.90;8.43;;;;;;;14.40;33.13;93861.31;5013865;28;20061;-63
2021/12/04 08:26:38;;;;;;;9.40;8.35;;;;;;;14.25;33.26;93861.88;5014521;28;20338;-66
2021/12/04 08:29:05;;;;;;;8.95;7.70;;;;;;;13.92;34.09;93852.06;5014809;28;20050;-65
2021/12/04 08:31:33;;;;;;;10.15;9.15;;;;;;;14.49;33.18;93854.91;5014804;28;20041;-61
2021/12/04 08:34:00;;;;;;;11.27;10.15;;;;;;;14.17;34.65;93851.09;5014282;28;20079;-60
2021/12/04 08:36:27;;;;;;;9.55;8.55;;;;;;;14.33;34.39;93855.81;5014367;28;20120;-57
2021/12/04 08:38:55;;;;;;;9.38;8.38;;;;;;;14.35;34.66;93851.75;5014564;28;20056;-62
2021/12/04 08:41:22;;;;;;;9.63;8.63;;;;;;;14.91;33.39;93843.56;5014573;28;20052;-63
2021/12/04 08:43:49;;;;;;;9.52;8.52;;;;;;;14.68;34.38;93851.81;5014404;28;20058;-60
2021/12/04 08:46:20;;;;;;;9.82;8.82;;;;;;;14.80;34.25;93843.94;5014346;28;20487;-60
2021/12/04 08:48:52;;;;;;;9.00;8.10;;;;;;;14.70;34.16;93843.59;5014448;28;20054;-60
2021/12/04 08:51:22;;;;;;;9.70;8.70;;;;;;;14.53;34.47;93828.72;5013573;28;20453;-59
2021/12/04 08:53:52;;;;;;;9.77;8.60;;;;;;;14.50;34.40;93834.63;5013544;28;20061;-58
2021/12/04 08:56:20;;;;;;;7.45;6.68;;;;;;;14.16;33.92;93815.41;5014890;28;20440;-58
2021/12/04 08:58:47;;;;;;;8.05;7.25;;;;;;;14.24;34.38;93829.56;5014426;28;20052;-60
2021/12/04 09:01:26;;;;;;;8.25;7.35;;;;;;;14.30;34.82;93832.75;5014409;28;20054;-62
2021/12/04 09:04:04;;;;;;;8.18;7.35;;;;;;;14.45;34.71;93827.72;5013958;28;20460;-60
2021/12/04 09:06:32;;;;;;;8.85;7.35;;;;;;;14.45;33.86;93824.31;5014147;28;20057;-57
2021/12/04 09:08:59;;;;;;;9.48;8.18;;;;;;;14.39;34.10;93830.84;5014251;28;20058;-54
2021/12/04 09:11:31;;;;;;;9.05;8.02;;;;;;;14.34;34.15;93836.31;5014387;28;20046;-54
2021/12/04 09:13:59;;;;;;;8.38;7.57;;;;;;;15.21;32.93;93842.28;5011058;28;20053;-58
2021/12/04 09:16:26;;;;;;;8.00;6.35;;;;;;;15.04;32.95;93842.47;5012411;28;20364;-56
2021/12/04 09:18:55;;;;;;;8.40;6.68;;;;;;;14.96;33.41;93840.72;5014180;28;20054;-57
2021/12/04 09:21:24;;;;;;;8.32;6.60;;;;;;;14.98;32.90;93838.53;5017921;28;20065;-56
2021/12/04 09:24:01;;;;;;;7.28;6.57;;;;;;;15.19;33.58;93844.50;5016367;28;20068;-57
2021/12/04 09:26:39;;;;;;;6.70;6.10;;;;;;;15.27;33.33;93840.22;5016982;28;20045;-55
2021/12/04 09:59:34;;;;;;;9.10;8.20;;;;;;;14.94;33.96;93853.44;5014669;28;20046;-55
2021/12/04 10:05:05;;;;;;;11.00;9.75;;;;;;;14.60;34.84;93839.50;5016692;28;20042;-54
2021/12/04 10:24:33;;;;;;;10.90;9.80;;;;;;;15.03;35.03;93814.63;5016090;28;20057;-55
2021/12/04 10:32:41;;;;;;;9.90;8.90;;;;;;;14.77;34.96;93797.25;5016222;28;20053;-54
2021/12/04 10:35:16;;;;;;;10.40;9.10;;;;;;;15.34;33.92;93799.06;5016547;28;20041;-55
2021/12/04 10:37:52;;;;;;;8.57;7.68;;;;;;;14.89;34.52;93793.13;5016076;28;20491;-53
2021/12/04 10:40:23;;;;;;;12.10;8.35;;;;;;;14.92;34.54;93800.34;5016677;28;20112;-54
2021/12/04 10:42:58;;;;;;;11.13;8.63;;;;;;;14.91;34.60;93801.44;5051989;28;20050;-53
2021/12/04 10:45:33;;;;;;;9.02;7.90;;;;;;;14.89;34.86;93803.63;5014188;28;20053;-63
2021/12/04 10:48:07;;;;;;;8.10;7.30;;;;;;;15.02;34.72;93784.13;5016774;28;20403;-51
2021/12/04 10:53:03;;;;;;;8.15;6.85;;;;;;;15.07;34.11;93791.81;5015570;28;20053;-68
2021/12/04 11:03:36;;;;;;;8.55;6.60;;;;;;;15.19;33.81;93801.59;5025732;28;20053;-56
2021/12/04 11:06:28;;;;;;;6.00;5.20;;;;;;;15.24;33.44;93804.00;5015226;28;20058;-50
2021/12/04 11:20:26;;;;;;;7.70;5.68;;;;;;;15.55;33.69;93803.47;5015036;28;20053;-53
2021/12/04 11:26:11;;;;;;;5.93;4.90;;;;;;;15.58;32.69;93802.78;5016034;28;20064;-50
2021/12/04 11:41:40;;;;;;;69.47;45.85;;;;;;;15.74;33.01;93790.53;5014959;28;20052;-51
2021/12/04 11:44:13;;;;;;;7.13;6.25;;;;;;;15.55;33.24;93795.56;5044554;28;20353;-49
2021/12/04 11:46:46;;;;;;;6.75;5.55;;;;;;;15.66;33.28;93794.06;5043758;28;20049;-52
2021/12/04 11:49:25;;;;;;;7.00;5.68;;;;;;;15.55;33.42;93792.91;5015448;28;20052;-52
2021/12/04 11:52:11;;;;;;;6.72;5.25;;;;;;;15.47;33.81;93791.19;5014807;28;20372;-49
2021/12/04 11:54:57;;;;;;;7.18;5.47;;;;;;;15.73;33.39;93789.00;5014648;28;20066;-49
2021/12/04 11:57:30;;;;;;;6.40;5.75;;;;;;;15.79;33.01;93784.25;5015728;28;20050;-51
2021/12/04 12:00:10;;;;;;;6.93;6.22;;;;;;;15.55;33.41;93771.84;5015209;28;20045;-51
2021/12/04 12:02:39;;;;;;;9.18;6.57;;;;;;;15.67;33.51;93775.28;5014562;28;20050;-52
2021/12/04 12:05:09;;;;;;;7.57;6.75;;;;;;;15.56;33.59;93768.13;5014690;28;20082;-51
2021/12/04 12:07:36;;;;;;;8.90;6.50;;;;;;;15.83;33.07;93769.31;5014754;28;20060;-51
2021/12/04 12:10:09;;;;;;;7.85;5.88;;;;;;;15.50;33.60;93785.25;5047028;28;20049;-51
2021/12/04 12:12:39;;;;;;;6.88;6.07;;;;;;;15.43;33.84;93772.63;5014399;28;20046;-53
2021/12/04 12:15:23;;;;;;;7.43;6.18;;;;;;;15.87;33.16;93781.47;5015057;28;20065;-54
2021/12/04 12:17:51;;;;;;;7.72;6.93;;;;;;;15.55;33.57;93777.13;5014975;28;20486;-51
2021/12/04 12:20:36;;;;;;;9.10;7.03;;;;;;;15.76;33.23;93783.06;5014750;28;20049;-53
2021/12/04 12:23:06;;;;;;;7.88;7.07;;;;;;;15.69;33.86;93785.50;5013574;28;20050;-49
2021/12/04 12:37:21;;;;;;;9.82;8.38;;;;;;;15.53;34.06;93795.13;5014751;28;20053;-61
2021/12/04 12:40:05;;;;;;;10.85;8.73;;;;;;;15.67;33.84;93795.59;5014679;28;20050;-69
2021/12/04 12:42:40;;;;;;;9.68;8.20;;;;;;;15.37;33.77;93793.16;5014687;28;20053;-70
2021/12/04 12:45:25;;;;;;;8.88;7.97;;;;;;;15.61;33.69;93789.78;5014302;28;20049;-70
2021/12/04 12:48:02;;;;;;;7.57;6.78;;;;;;;15.33;33.96;93791.50;5014980;28;20053;-60
2021/12/04 12:50:42;;;;;;;9.48;6.68;;;;;;;15.43;33.64;93786.56;5014721;28;20050;-60
2021/12/04 12:53:25;;;;;;;7.13;6.15;;;;;;;15.54;33.44;93786.88;5013417;28;20108;-70
2021/12/04 12:56:06;;;;;;;9.43;6.32;;;;;;;15.66;33.58;93786.16;5018788;28;20361;-71
2021/12/04 12:58:42;;;;;;;6.97;6.28;;;;;;;15.54;34.02;93797.41;5018775;28;20049;-69
2021/12/04 13:12:52;;;;;;;12.75;10.40;;;;;;;15.91;33.27;93802.69;5017887;28;20038;-47
2021/12/04 13:15:36;;;;;;;10.93;8.35;;;;;;;15.61;33.75;93804.78;5018066;28;20056;-64
2021/12/04 13:18:23;;;;;;;9.43;8.38;;;;;;;15.59;33.65;93805.13;5039731;28;20054;-52
2021/12/04 13:20:52;;;;;;;11.48;9.68;;;;;;;15.07;34.79;93802.34;4998410;28;20050;-51
2021/12/04 13:23:22;;;;;;;10.82;9.10;;;;;;;15.78;33.65;93804.56;5004851;28;20054;-47
2021/12/04 13:26:10;;;;;;;13.25;10.48;;;;;;;15.98;32.79;93801.03;5018276;28;20057;-48
2021/12/04 13:28:40;;;;;;;14.15;9.95;;;;;;;16.11;32.47;93803.63;5016804;28;20064;-47
2021/12/04 13:31:07;;;;;;;12.55;10.57;;;;;;;15.79;32.90;93800.84;5017734;28;20448;-56
2021/12/04 13:33:37;;;;;;;12.88;10.68;;;;;;;15.58;33.41;93798.31;5017043;28;20083;-62
2021/12/04 13:36:16;;;;;;;12.43;9.02;;;;;;;15.82;33.04;93796.75;5018037;28;20042;-68
2021/12/04 13:38:44;;;;;;;11.32;9.07;;;;;;;15.95;32.30;93790.38;5017644;28;20049;-51
2021/12/04 13:41:12;;;;;;;9.57;8.48;;;;;;;16.40;31.87;93802.56;5008662;28;20373;-52
2021/12/04 13:43:39;;;;;;;8.77;7.97;;;;;;;16.06;32.66;93794.09;5011560;28;20077;-45
2021/12/04 13:46:07;;;;;;;10.05;7.63;;;;;;;16.69;31.28;93809.41;5017614;28;20738;-52
2021/12/04 13:48:35;;;;;;;9.85;7.70;;;;;;;17.43;30.02;93791.97;5016762;28;20137;-52
2021/12/04 13:51:03;;;;;;;9.70;8.70;;;;;;;17.25;29.95;93792.34;5016976;28;20068;-56
2021/12/04 13:53:41;;;;;;;8.68;7.65;;;;;;;16.49;31.70;93796.03;5016511;28;20065;-54
2021/12/04 13:56:11;;;;;;;8.25;6.80;;;;;;;16.47;31.87;93792.19;5016981;28;20046;-46
2021/12/04 13:58:48;;;;;;;8.77;7.22;;;;;;;16.44;31.39;93793.66;5016490;28;20076;-48
2021/12/04 14:01:16;;;;;;;7.88;7.07;;;;;;;16.71;31.25;93788.72;5017337;28;20041;-46
2021/12/04 14:03:44;;;;;;;9.00;7.82;;;;;;;17.05;30.44;93785.44;5016944;28;20053;-53
2021/12/04 14:06:17;;;;;;;11.48;9.48;;;;;;;16.66;31.25;93787.09;5016472;28;20455;-54
2021/12/04 14:08:56;;;;;;;10.70;9.60;;;;;;;16.60;31.71;93781.25;5017273;28;20060;-55
2021/12/04 14:11:39;;;;;;;11.95;10.73;;;;;;;16.60;31.23;93762.00;5017104;28;20042;-59
2021/12/04 14:14:21;;;;;;;12.68;11.02;;;;;;;16.85;30.93;93762.66;5017117;28;20038;-59
2021/12/04 14:16:51;;;;;;;13.07;11.68;;;;;;;16.53;31.52;93767.09;5016933;28;20056;-52
2021/12/04 14:19:19;;;;;;;14.00;11.57;;;;;;;16.20;31.73;93775.28;5018269;28;20053;-52
2021/12/04 14:22:14;;;;;;;11.68;10.40;;;;;;;16.33;31.56;93769.59;5017238;28;20504;-50
2021/12/04 14:24:44;;;;;;;15.02;12.30;;;;;;;16.39;31.44;93761.44;5016845;28;20076;-52
2021/12/04 14:27:20;;;;;;;12.82;11.52;;;;;;;16.38;31.73;93765.19;5048735;28;20420;-53
2021/12/04 14:29:54;;;;;;;13.70;11.63;;;;;;;16.42;31.35;93756.28;5017314;28;20445;-46
2021/12/04 14:32:28;;;;;;;13.05;10.63;;;;;;;16.77;30.83;93753.03;5016791;28;20046;-42
2021/12/04 14:34:57;;;;;;;13.63;10.90;;;;;;;16.82;30.86;93760.72;5016710;28;20053;-47
2021/12/04 14:37:24;;;;;;;26.30;19.05;;;;;;;16.95;30.82;93767.47;5017348;28;20060;-49
2021/12/04 14:39:52;;;;;;;18.20;13.43;;;;;;;17.27;30.23;93776.91;5016795;28;20361;-48
2021/12/04 14:42:28;;;;;;;13.48;11.00;;;;;;;16.55;31.56;93780.72;5015332;28;20049;-48
2021/12/04 14:44:59;;;;;;;13.43;11.02;;;;;;;16.13;32.46;93775.06;5016283;28;20052;-47
2021/12/04 14:47:37;;;;;;;13.85;10.82;;;;;;;16.20;32.44;93772.63;5004923;28;20046;-49
2021/12/04 14:50:07;;;;;;;13.57;12.00;;;;;;;16.01;32.30;93783.78;4996859;28;20058;-49
2021/12/04 14:52:35;;;;;;;15.50;12.38;;;;;;;16.44;31.89;93771.78;4996933;28;20062;-50
2021/12/04 14:55:16;;;;;;;18.88;15.00;;;;;;;15.97;32.38;93770.50;5016178;28;20045;-58